Time;durP1;ratioP1;P1;durP2;ratioP2;P2;SDS_P1;SDS_P2;PMS_P1;PMS_P2;Temp;Humidity;BMP_temperature;BMP_pressure;BME280_temperature;BME280_humidity;BME280_pressure;Samples;Min_cycle;Max_cycle;Signal;HPM_P1;HPM_P2
2022/12/17 13:07:26;;;;;;;31.95;23.30;;;;;;;1.95;100.00;102522.31;10375902;28;20121;-72
2022/12/17 13:12:39;;;;;;;30.85;24.30;;;;;;;1.99;100.00;102522.97;10374781;28;20117;-72
2022/12/17 13:17:45;;;;;;;29.48;22.13;;;;;;;1.84;100.00;102522.16;10373673;28;20485;-72
2022/12/17 13:22:51;;;;;;;28.57;22.50;;;;;;;1.52;100.00;102517.09;10373576;28;20086;-72
2022/12/17 13:27:51;;;;;;;46.67;26.85;;;;;;;1.53;100.00;102517.94;10388740;28;20287;-72
2022/12/17 13:33:15;;;;;;;37.08;28.70;;;;;;;1.47;100.00;102515.66;10373600;28;20026;-72
2022/12/17 13:38:30;;;;;;;38.03;22.42;;;;;;;1.38;100.00;102515.31;10373592;28;20046;-72
2022/12/17 13:43:33;;;;;;;50.47;29.80;;;;;;;1.28;100.00;102508.88;10373913;28;20099;-71
2022/12/17 13:48:33;;;;;;;42.30;27.60;;;;;;;1.21;100.00;102512.84;10377051;28;20367;-72
2022/12/17 13:53:33;;;;;;;46.13;29.98;;;;;;;1.26;100.00;102508.09;10380913;28;20033;-71
2022/12/17 13:58:35;;;;;;;49.85;29.92;;;;;;;1.33;100.00;102508.56;10382454;28;20453;-71
2022/12/17 14:03:36;;;;;;;42.90;30.13;;;;;;;1.31;100.00;102513.16;10380090;28;20046;-70
2022/12/17 14:08:36;;;;;;;39.22;29.77;;;;;;;1.17;100.00;102520.19;10363541;28;20041;-70
2022/12/17 14:13:36;;;;;;;35.28;29.08;;;;;;;1.14;100.00;102530.22;10396348;28;20548;-70
2022/12/17 14:18:37;;;;;;;37.05;31.15;;;;;;;1.06;100.00;102538.69;10396896;28;20034;-75
2022/12/17 14:23:37;;;;;;;36.45;27.83;;;;;;;1.09;100.00;102537.66;10380561;28;20069;-74
2022/12/17 14:28:47;;;;;;;39.13;29.95;;;;;;;1.00;100.00;102549.75;10380364;28;20124;-69
2022/12/17 14:34:06;;;;;;;40.50;31.13;;;;;;;0.95;100.00;102551.84;10396086;28;20041;-71
2022/12/17 14:39:19;;;;;;;36.63;29.23;;;;;;;0.89;100.00;102557.53;10382146;28;20034;-71
2022/12/17 14:44:21;;;;;;;44.80;30.42;;;;;;;0.80;100.00;102560.75;10379886;28;20033;-70
2022/12/17 14:49:21;;;;;;;47.20;32.58;;;;;;;0.55;100.00;102570.25;10395482;28;20525;-70
2022/12/17 14:54:24;;;;;;;41.33;30.98;;;;;;;0.32;100.00;102568.06;10395872;28;20116;-70
2022/12/17 14:59:32;;;;;;;48.35;31.90;;;;;;;0.19;100.00;102578.59;10378044;28;20058;-70
2022/12/17 15:04:32;;;;;;;55.95;36.13;;;;;;;-0.07;100.00;102580.94;10380187;28;20041;-70
2022/12/17 15:09:36;;;;;;;50.95;35.58;;;;;;;-0.19;100.00;102594.97;10378704;28;20034;-70
2022/12/17 15:14:36;;;;;;;47.15;36.42;;;;;;;-0.32;100.00;102588.59;10378253;28;20114;-70
2022/12/17 15:19:37;;;;;;;49.42;39.10;;;;;;;-0.54;100.00;102596.94;10378439;28;20457;-71
2022/12/17 15:24:37;;;;;;;46.95;32.05;;;;;;;-0.70;100.00;102604.88;10378302;28;20062;-71
2022/12/17 15:29:38;;;;;;;66.18;42.65;;;;;;;-0.85;100.00;102611.88;10379595;28;20033;-68
2022/12/17 15:34:38;;;;;;;71.13;45.42;;;;;;;-0.93;100.00;102616.72;10377789;28;20053;-72
2022/12/17 15:39:39;;;;;;;54.00;40.22;;;;;;;-1.07;100.00;102619.25;10378987;28;20030;-70
2022/12/17 15:44:39;;;;;;;54.83;38.95;;;;;;;-1.19;100.00;102618.94;10379980;28;20034;-71
2022/12/17 15:49:40;;;;;;;74.78;44.20;;;;;;;-1.34;100.00;102625.06;10376787;28;20547;-71
2022/12/17 15:54:43;;;;;;;62.63;44.05;;;;;;;-1.50;100.00;102629.41;10377039;28;20066;-71
2022/12/17 15:59:43;;;;;;;67.90;45.90;;;;;;;-1.59;100.00;102637.84;10392669;28;20034;-71
2022/12/17 16:04:44;;;;;;;64.28;39.72;;;;;;;-1.73;100.00;102630.53;10377266;28;20124;-71
2022/12/17 16:09:44;;;;;;;83.15;50.90;;;;;;;-1.81;100.00;102630.94;10376026;28;20433;-71
2022/12/17 16:14:45;;;;;;;115.35;83.03;;;;;;;-1.79;100.00;102625.53;10376487;28;20034;-71
2022/12/17 16:19:45;;;;;;;68.75;45.08;;;;;;;-1.78;100.00;102636.09;10392242;28;20482;-71
2022/12/17 16:24:46;;;;;;;58.20;42.15;;;;;;;-1.86;100.00;102638.25;10375884;28;20427;-71
2022/12/17 16:29:47;;;;;;;78.70;44.47;;;;;;;-2.04;100.00;102644.44;10376034;28;20470;-71
2022/12/17 16:34:47;;;;;;;72.45;46.00;;;;;;;-2.14;100.00;102636.94;10374947;28;20132;-71
2022/12/17 16:39:49;;;;;;;68.68;41.95;;;;;;;-2.20;100.00;102649.59;10376125;28;20038;-71
2022/12/17 16:44:49;;;;;;;79.53;46.97;;;;;;;-2.30;100.00;102638.56;10358557;28;20037;-72
2022/12/17 16:49:50;;;;;;;69.72;44.03;;;;;;;-2.34;100.00;102650.25;10375181;28;20430;-72
2022/12/17 16:54:50;;;;;;;67.78;43.25;;;;;;;-2.45;100.00;102648.09;10374868;28;20140;-72
2022/12/17 16:59:51;;;;;;;95.25;50.53;;;;;;;-2.51;100.00;102643.06;10390937;28;20084;-72
2022/12/17 17:04:51;;;;;;;82.22;48.25;;;;;;;-2.59;100.00;102651.38;10389693;28;20041;-72
2022/12/17 17:09:51;;;;;;;63.25;39.00;;;;;;;-2.68;100.00;102646.50;10373897;28;20030;-72
2022/12/17 17:14:52;;;;;;;88.60;49.47;;;;;;;-2.73;100.00;102650.28;10374725;28;20084;-71
2022/12/17 17:19:52;;;;;;;90.30;51.15;;;;;;;-2.82;100.00;102656.84;10373576;28;20565;-72
2022/12/17 17:24:53;;;;;;;99.43;52.38;;;;;;;-2.86;100.00;102657.91;10373420;28;20095;-71
2022/12/17 17:29:55;;;;;;;94.63;53.75;;;;;;;-2.91;100.00;102660.75;10372307;28;20033;-72
2022/12/17 17:34:55;;;;;;;98.90;52.63;;;;;;;-2.96;100.00;102660.09;10374286;28;20327;-70
2022/12/17 17:39:56;;;;;;;67.70;43.42;;;;;;;-2.25;100.00;102652.47;10374857;28;20034;-70
2022/12/17 17:44:56;;;;;;;99.05;47.50;;;;;;;-1.79;100.00;102662.72;10374344;28;20084;-69
2022/12/17 17:49:56;;;;;;;97.72;54.67;;;;;;;-1.87;100.00;102663.94;10374491;28;20042;-69
2022/12/17 17:54:57;;;;;;;102.97;49.95;;;;;;;-2.00;100.00;102661.97;10373459;28;20470;-69
2022/12/17 17:59:57;;;;;;;93.07;50.35;;;;;;;-2.31;100.00;102659.88;10373842;28;20061;-69
2022/12/17 18:04:58;;;;;;;91.13;51.58;;;;;;;-2.43;100.00;102655.97;10373939;28;20437;-69
2022/12/17 18:09:58;;;;;;;102.10;54.15;;;;;;;-2.58;100.00;102661.06;10374621;28;20034;-69
2022/12/17 18:14:58;;;;;;;115.20;57.92;;;;;;;-2.59;100.00;102658.47;10388395;28;20038;-69
2022/12/17 18:19:59;;;;;;;104.68;51.15;;;;;;;-2.61;100.00;102663.84;10372386;28;20081;-69
2022/12/17 18:24:59;;;;;;;82.25;40.70;;;;;;;-2.52;100.00;102661.69;10373369;28;20525;-70
2022/12/17 18:30:00;;;;;;;98.60;50.35;;;;;;;-2.65;100.00;102661.38;10372919;28;20065;-69
2022/12/17 18:35:00;;;;;;;107.82;53.40;;;;;;;-2.76;100.00;102672.47;10376117;28;20058;-69
2022/12/17 18:40:01;;;;;;;107.50;49.78;;;;;;;-2.87;100.00;102678.28;10396174;28;20034;-69
2022/12/17 18:45:01;;;;;;;96.18;49.05;;;;;;;-2.90;100.00;102686.34;10396043;28;20088;-69
2022/12/17 18:50:02;;;;;;;97.30;49.42;;;;;;;-3.04;100.00;102689.56;10382120;28;20042;-69
2022/12/17 18:55:03;;;;;;;115.68;55.60;;;;;;;-3.08;100.00;102682.69;10380319;28;20084;-69
2022/12/17 19:00:04;;;;;;;106.00;58.13;;;;;;;-2.99;100.00;102683.25;10380911;28;20045;-69
2022/12/17 19:05:04;;;;;;;126.55;66.07;;;;;;;-2.97;100.00;102691.97;10381001;28;20046;-69
2022/12/17 19:10:05;;;;;;;128.00;61.65;;;;;;;-3.00;100.00;102694.75;10378639;28;20088;-69
2022/12/17 19:15:06;;;;;;;146.98;62.15;;;;;;;-2.96;100.00;102693.72;10394941;28;20478;-69
2022/12/17 19:20:07;;;;;;;114.00;55.78;;;;;;;-2.91;100.00;102704.97;10378354;28;20047;-69
2022/12/17 19:25:09;;;;;;;107.53;52.13;;;;;;;-2.89;100.00;102711.94;10377559;28;20041;-69
2022/12/17 19:30:10;;;;;;;75.25;38.90;;;;;;;-2.89;100.00;102719.88;10379037;28;20038;-69
2022/12/17 19:35:10;;;;;;;111.15;56.05;;;;;;;-2.93;100.00;102720.09;10378649;28;20053;-69
2022/12/17 19:40:11;;;;;;;112.70;51.67;;;;;;;-2.94;100.00;102710.38;10377807;28;20425;-69
2022/12/17 19:45:11;;;;;;;72.78;36.47;;;;;;;-2.90;100.00;102714.66;10379855;28;20033;-69
2022/12/17 19:50:12;;;;;;;114.50;52.33;;;;;;;-2.90;100.00;102712.00;10378081;28;20351;-69
2022/12/17 19:55:12;;;;;;;114.80;56.40;;;;;;;-2.88;100.00;102718.09;10377074;28;20030;-69
2022/12/17 20:00:13;;;;;;;60.28;34.25;;;;;;;-2.86;100.00;102724.19;10376966;28;20057;-69
2022/12/17 20:05:14;;;;;;;107.03;54.47;;;;;;;-2.83;100.00;102732.00;10377886;28;20041;-69
2022/12/17 20:10:14;;;;;;;66.78;35.92;;;;;;;-2.85;100.00;102732.06;10377025;28;20038;-69
2022/12/17 20:15:14;;;;;;;95.28;43.60;;;;;;;-2.96;100.00;102721.06;10377397;28;20061;-69
2022/12/17 20:20:15;;;;;;;96.40;52.15;;;;;;;-2.93;100.00;102722.75;10375921;28;20083;-69
2022/12/17 20:25:15;;;;;;;99.35;54.33;;;;;;;-2.92;100.00;102735.91;10378056;28;20568;-69
2022/12/17 20:30:16;;;;;;;115.40;50.78;;;;;;;-2.91;100.00;102734.13;10377382;28;20037;-69
2022/12/17 20:35:16;;;;;;;79.43;39.30;;;;;;;-2.99;100.00;102738.91;10374696;28;20050;-70
2022/12/17 20:40:17;;;;;;;77.65;42.35;;;;;;;-3.08;100.00;102741.00;10376202;28;20486;-70
2022/12/17 20:45:17;;;;;;;96.63;46.40;;;;;;;-3.11;100.00;102748.22;10375088;28;20034;-69
2022/12/17 20:50:17;;;;;;;112.53;47.95;;;;;;;-3.01;100.00;102746.91;10377914;28;20470;-70
2022/12/17 20:55:18;;;;;;;107.60;53.72;;;;;;;-3.00;100.00;102753.06;10375667;28;20072;-69
2022/12/17 21:00:18;;;;;;;87.53;43.97;;;;;;;-3.01;100.00;102746.91;10373990;28;20030;-69
2022/12/17 21:05:19;;;;;;;104.35;54.95;;;;;;;-2.97;100.00;102745.84;10374820;28;20038;-69
2022/12/17 21:10:20;;;;;;;69.38;33.42;;;;;;;-3.09;100.00;102743.72;10390347;28;20041;-70
2022/12/17 21:15:21;;;;;;;100.35;53.25;;;;;;;-3.20;100.00;102741.50;10375050;28;20100;-69
2022/12/17 21:20:21;;;;;;;108.75;57.58;;;;;;;-3.34;100.00;102767.72;10390412;28;20100;-69
2022/12/17 21:25:22;;;;;;;84.78;42.05;;;;;;;-3.42;100.00;102772.44;10374147;28;20125;-69
2022/12/17 21:30:22;;;;;;;87.90;47.55;;;;;;;-3.43;100.00;102779.53;10375187;28;20042;-69
2022/12/17 21:35:22;;;;;;;79.45;42.08;;;;;;;-3.45;100.00;102791.94;10375140;28;20049;-69
2022/12/17 21:40:23;;;;;;;97.82;45.40;;;;;;;-3.39;100.00;102789.06;10374919;28;20065;-69
2022/12/17 21:45:23;;;;;;;60.42;31.98;;;;;;;-3.34;100.00;102792.41;10376368;28;20060;-70
2022/12/17 21:50:23;;;;;;;100.18;46.72;;;;;;;-3.29;100.00;102794.84;10390363;28;20088;-70
2022/12/17 21:55:24;;;;;;;82.97;42.10;;;;;;;-3.30;100.00;102807.25;10375306;28;20079;-70
2022/12/17 22:00:24;;;;;;;91.70;49.03;;;;;;;-3.39;100.00;102814.69;10389239;28;20546;-69
2022/12/17 22:05:25;;;;;;;94.13;46.42;;;;;;;-3.51;100.00;102808.97;10374398;28;20041;-69
2022/12/17 22:10:26;;;;;;;71.18;35.97;;;;;;;-3.75;100.00;102812.53;10379864;28;20425;-70
2022/12/17 22:15:26;;;;;;;86.85;48.70;;;;;;;-3.78;100.00;102812.66;10381437;28;20034;-69
2022/12/17 22:20:26;;;;;;;94.80;49.22;;;;;;;-3.88;100.00;102812.13;10381503;28;20042;-70
2022/12/17 22:25:27;;;;;;;88.32;46.95;;;;;;;-3.90;100.00;102805.16;10380516;28;20367;-71
2022/12/17 22:35:46;;;;;;;98.13;48.08;;;;;;;-3.99;100.00;102788.72;10380506;28;20069;-69
2022/12/17 22:40:46;;;;;;;117.80;50.58;;;;;;;-4.09;100.00;102782.03;10379681;28;20429;-69
2022/12/17 22:45:47;;;;;;;79.45;40.22;;;;;;;-4.15;100.00;102787.53;10379797;28;20061;-69
2022/12/17 22:50:47;;;;;;;92.03;48.40;;;;;;;-4.15;100.00;102808.72;10380830;28;20038;-69
2022/12/17 22:55:48;;;;;;;86.93;45.90;;;;;;;-4.17;100.00;102820.28;10380271;28;20037;-70
2022/12/17 23:00:48;;;;;;;101.22;48.50;;;;;;;-4.15;100.00;102811.34;10382403;28;20443;-70
2022/12/17 23:05:49;;;;;;;84.57;43.17;;;;;;;-4.06;100.00;102805.72;10378578;28;20151;-70
2022/12/17 23:10:49;;;;;;;113.00;46.00;;;;;;;-3.98;100.00;102813.41;10379609;28;20045;-69
2022/12/17 23:15:49;;;;;;;79.10;40.10;;;;;;;-3.95;100.00;102800.06;10393686;28;20037;-70
2022/12/17 23:20:50;;;;;;;63.35;29.83;;;;;;;-4.06;100.00;102802.22;10377079;28;20125;-70
2022/12/17 23:25:51;;;;;;;80.93;45.38;;;;;;;-4.09;100.00;102789.97;10379123;28;20080;-69
2022/12/17 23:30:52;;;;;;;98.05;49.58;;;;;;;-4.14;100.00;102780.50;10379036;28;20069;-69
2022/12/17 23:36:07;;;;;;;100.13;44.33;;;;;;;-4.16;100.00;102780.53;10379668;28;20100;-69
2022/12/17 23:41:09;;;;;;;56.87;29.47;;;;;;;-3.99;100.00;102790.50;10378393;28;20060;-70
2022/12/17 23:46:10;;;;;;;87.72;35.90;;;;;;;-3.87;100.00;102803.28;10392570;28;20109;-70
2022/12/17 23:51:10;;;;;;;93.18;39.42;;;;;;;-3.77;100.00;102770.22;10376772;28;20448;-70
2022/12/17 23:56:15;;;;;;;55.72;29.08;;;;;;;-3.79;100.00;102753.56;10378438;28;20117;-70
